Gasquet, California
Current Conditions -  °F | °C
As of 8:56 AM on Monday 22 Dec 2014 (Local Time) from KCEC Reporting Station
Moderate Fog Moderate Fog  
Wind Chill: 57°   Ceiling: 100
Heat Index: 57°   Visibility: 0.25mi
Dew Point: 57°   Wind: 3mph
Humidity: 100%   Direction: 290°WNW
Pressure: 30.36"   Gusts: NA
Location:  41.85°N, 123.97°W
Report Text: KCEC 221656Z AUTO 29003KT 1/4SM FG OVC001 14/14 A3036 RMK AO2 SLP282 T01390139
Loading
Personal Weather Stations






























Interactive Weather Map New forecast layout! Learn more

10-Day Weather Forecast

Advertisements
Track Severe Weather on mobile